This is the latest recevied weather packets stored in our database for station/object KL1SF-7. If no packets are shown the sender has not sent any weather packets the latest 10 day(s).
| Time | Temp. | Humidity | Pressure | Rain* | Wind** | Luminosity | Snow |
|---|---|---|---|---|---|---|---|
| 1777389208 | 8.33° C | 34% | 1019 hPa | 0 mm | - | - | - |
| 1777388620 | 7.78° C | 33% | 1019 hPa | 0 mm | - | - | - |
| 1777388005 | 7.22° C | 37% | 1018.8 hPa | 0 mm | - | - | - |
| 1777387412 | 7.22° C | 34% | 1018.8 hPa | 0 mm | - | - | - |
| 1777386822 | 6.11° C | 39% | 1018.8 hPa | 0 mm | - | - | - |
| 1777386220 | 3.89° C | 44% | 1018.6 hPa | 0 mm | - | - | - |
| 1777385618 | 2.22° C | 50% | 1018.6 hPa | 0 mm | - | - | - |
| 1777385028 | 0.56° C | 59% | 1018.4 hPa | 0 mm | - | - | - |
| 1777384408 | -0.56° C | 62% | 1018 hPa | 0 mm | - | - | - |
| 1777383812 | -1.67° C | 64% | 1018 hPa | 0 mm | - | - | - |
| 1777383220 | -2.22° C | 64% | 1018.4 hPa | 0 mm | - | - | - |
| 1777382620 | -2.78° C | 64% | 1018.1 hPa | 0 mm | - | - | - |
| 1777382001 | -2.78° C | 64% | 1018.1 hPa | 0 mm | - | - | - |
| 1777381410 | -3.33° C | 64% | 1017.4 hPa | 0 mm | - | - | - |
| 1777380805 | -2.78° C | 63% | 1017.4 hPa | 0 mm | - | - | - |
| 1777380208 | -2.78° C | 63% | 1017.4 hPa | 0 mm | - | - | - |
| 1777379620 | -2.78° C | 63% | 1017.1 hPa | 0 mm | - | - | - |
| 1777379016 | -2.78° C | 62% | 1016.9 hPa | 0 mm | - | - | - |
| 1777378420 | -2.78° C | 61% | 1016.9 hPa | 0 mm | - | - | - |
| 1777377829 | -2.78° C | 61% | 1017.2 hPa | 0 mm | - | - | - |
| 1777377203 | -2.22° C | 60% | 1017.2 hPa | 0 mm | - | - | - |
| 1777376606 | -2.22° C | 59% | 1017.2 hPa | 0 mm | - | - | - |
| 1777376016 | -1.67° C | 57% | 1016.7 hPa | 0 mm | - | - | - |
| 1777375416 | -1.11° C | 56% | 1016.8 hPa | 0 mm | - | - | - |
| 1777374819 | -1.11° C | 55% | 1016.8 hPa | 0 mm | - | - | - |
* Rain since midnight (hover to see other rain measurements)
** Current wind speed in m/s (hover to see current wind gust speed)